createdAt,value
2022-08-29T00:02:20.703Z,58.70
2022-08-29T00:04:47.191Z,58.80
2022-08-29T00:07:13.664Z,58.80
2022-08-29T00:09:40.121Z,58.80
2022-08-29T00:12:06.593Z,58.80
2022-08-29T00:14:33.060Z,58.90
2022-08-29T00:16:59.574Z,59.10
2022-08-29T00:19:26.072Z,59.10
2022-08-29T00:21:52.536Z,59.00
2022-08-29T00:24:18.995Z,59.00
2022-08-29T00:26:45.472Z,59.00
2022-08-29T00:29:11.928Z,59.10
2022-08-29T00:31:38.434Z,59.20
2022-08-29T00:34:04.938Z,59.20
2022-08-29T00:36:31.397Z,59.10
2022-08-29T00:38:58.339Z,59.20
2022-08-29T00:41:24.899Z,59.50
2022-08-29T00:43:51.368Z,59.50
2022-08-29T00:46:17.871Z,59.40
2022-08-29T00:48:44.399Z,59.50
2022-08-29T00:51:10.867Z,59.60
2022-08-29T00:53:37.334Z,59.50
2022-08-29T00:56:03.801Z,59.60
2022-08-29T00:58:30.277Z,59.60
2022-08-29T01:00:56.814Z,59.60
2022-08-29T01:03:23.307Z,59.70
2022-08-29T01:05:49.768Z,59.50
2022-08-29T01:08:16.366Z,59.40
2022-08-29T01:10:42.901Z,59.60
2022-08-29T01:13:09.373Z,59.60
2022-08-29T01:15:35.848Z,59.60
2022-08-29T01:18:02.315Z,59.60
2022-08-29T01:20:28.776Z,59.80
2022-08-29T01:22:55.253Z,59.60
2022-08-29T01:25:21.708Z,59.60
2022-08-29T01:27:48.180Z,59.90
2022-08-29T01:30:14.640Z,59.90
2022-08-29T01:32:41.100Z,59.90
2022-08-29T01:35:07.571Z,60.00
2022-08-29T01:37:34.039Z,60.00
2022-08-29T01:40:00.574Z,59.90
2022-08-29T01:42:27.087Z,60.20
2022-08-29T01:44:53.802Z,60.50
2022-08-29T01:47:20.345Z,60.40
2022-08-29T01:49:46.813Z,60.40
2022-08-29T01:52:13.264Z,60.20
2022-08-29T01:54:39.743Z,60.70
2022-08-29T01:57:09.714Z,60.80
2022-08-29T01:59:39.216Z,60.90
2022-08-29T02:02:05.752Z,60.70
2022-08-29T02:04:32.253Z,60.80
2022-08-29T02:06:58.717Z,60.70
2022-08-29T02:09:25.197Z,60.70
2022-08-29T02:11:52.769Z,60.70
2022-08-29T02:14:19.860Z,60.60
2022-08-29T02:16:46.494Z,60.70
2022-08-29T02:19:13.013Z,61.00
2022-08-29T02:21:39.473Z,61.00
2022-08-29T02:24:24.017Z,61.20
2022-08-29T02:26:50.720Z,61.30
2022-08-29T02:29:17.191Z,61.10
2022-08-29T02:31:43.694Z,61.30
2022-08-29T02:34:10.341Z,61.30
2022-08-29T02:36:38.062Z,61.40
2022-08-29T02:39:07.814Z,61.50
2022-08-29T02:41:34.282Z,61.90
2022-08-29T02:44:00.768Z,61.80
2022-08-29T02:46:27.787Z,61.70
2022-08-29T02:49:01.320Z,61.70
2022-08-29T02:51:28.079Z,61.70
2022-08-29T02:53:54.563Z,61.80
2022-08-29T02:56:21.021Z,61.80
2022-08-29T02:58:47.477Z,61.90
2022-08-29T03:01:13.981Z,62.10
2022-08-29T03:03:40.470Z,62.10
2022-08-29T03:06:06.944Z,62.00
2022-08-29T03:08:33.398Z,62.00
2022-08-29T03:10:59.869Z,62.10
2022-08-29T03:13:26.325Z,62.10
2022-08-29T03:15:52.829Z,62.20
2022-08-29T03:18:19.335Z,62.20
2022-08-29T03:20:48.563Z,62.20
2022-08-29T03:23:16.089Z,62.20
2022-08-29T03:25:42.564Z,62.20
2022-08-29T03:28:09.017Z,62.10
2022-08-29T03:30:35.491Z,62.10
2022-08-29T03:33:01.953Z,62.20
2022-08-29T03:35:28.423Z,62.20
2022-08-29T03:37:54.898Z,62.30
2022-08-29T03:40:21.430Z,62.20
2022-08-29T03:42:47.986Z,62.20
2022-08-29T03:45:14.463Z,62.20
2022-08-29T03:47:40.916Z,62.20
2022-08-29T03:50:07.394Z,62.10
2022-08-29T03:52:33.855Z,62.10
2022-08-29T03:55:00.328Z,62.10
2022-08-29T03:57:26.781Z,62.10
2022-08-29T03:59:54.686Z,62.10
2022-08-29T04:02:21.148Z,62.10
2022-08-29T04:04:47.618Z,62.20
2022-08-29T04:07:14.075Z,62.10
2022-08-29T04:09:40.540Z,62.20
2022-08-29T04:12:07.017Z,62.20
2022-08-29T04:14:33.475Z,62.30
2022-08-29T04:16:59.945Z,62.70
2022-08-29T04:19:26.407Z,62.90
2022-08-29T04:21:52.876Z,62.90
2022-08-29T04:24:19.337Z,63.00
2022-08-29T04:26:45.805Z,62.90
2022-08-29T04:29:12.272Z,63.20
2022-08-29T04:31:38.791Z,63.00
2022-08-29T04:34:05.321Z,63.00
2022-08-29T04:36:31.825Z,63.10
2022-08-29T04:38:58.293Z,63.20
2022-08-29T04:41:24.759Z,63.30
2022-08-29T04:43:51.220Z,63.30
2022-08-29T04:46:23.646Z,63.20
2022-08-29T04:48:50.779Z,63.10
2022-08-29T04:51:17.246Z,63.20
2022-08-29T04:53:43.707Z,63.10
2022-08-29T04:56:10.180Z,63.00
2022-08-29T04:58:36.640Z,62.90
2022-08-29T05:01:03.125Z,63.10
2022-08-29T05:03:29.588Z,63.30
2022-08-29T05:05:56.064Z,63.20
2022-08-29T05:08:22.531Z,63.20
2022-08-29T05:10:49.007Z,63.20
2022-08-29T05:13:15.473Z,63.30
2022-08-29T05:15:42.000Z,63.40
2022-08-29T05:18:08.507Z,63.60
2022-08-29T05:20:35.032Z,63.50
2022-08-29T05:23:01.485Z,63.40
2022-08-29T05:25:27.965Z,63.40
2022-08-29T05:27:54.420Z,63.30
2022-08-29T05:30:34.667Z,63.30
2022-08-29T05:33:01.801Z,63.30
2022-08-29T05:35:28.276Z,63.40
2022-08-29T05:37:54.732Z,63.40
2022-08-29T05:40:21.229Z,63.50
2022-08-29T05:42:47.756Z,63.50
2022-08-29T05:45:15.993Z,63.40
2022-08-29T05:47:42.466Z,63.40
2022-08-29T05:50:08.935Z,63.50
2022-08-29T05:52:35.596Z,63.60
2022-08-29T05:55:02.055Z,63.60
2022-08-29T05:57:28.525Z,63.70
2022-08-29T05:59:54.987Z,63.70
2022-08-29T06:02:21.601Z,63.60
2022-08-29T06:04:48.151Z,63.60
2022-08-29T06:07:14.629Z,63.40
2022-08-29T06:09:41.093Z,63.40
2022-08-29T06:12:07.556Z,63.40
2022-08-29T06:14:34.031Z,63.40
2022-08-29T06:17:00.512Z,63.40
2022-08-29T06:19:26.971Z,63.30
2022-08-29T06:21:53.442Z,63.30
2022-08-29T06:24:20.844Z,63.30
2022-08-29T06:26:47.313Z,63.20
2022-08-29T06:29:13.780Z,63.20
2022-08-29T06:31:40.246Z,63.20
2022-08-29T06:34:06.708Z,63.20
2022-08-29T06:36:33.177Z,63.20
2022-08-29T06:39:03.572Z,63.20
2022-08-29T06:41:30.048Z,63.10
2022-08-29T06:43:56.508Z,63.10
2022-08-29T06:46:23.030Z,63.00
2022-08-29T06:48:49.542Z,63.00
2022-08-29T06:51:16.001Z,63.00
2022-08-29T06:53:42.824Z,62.90
2022-08-29T06:56:11.596Z,62.70
2022-08-29T06:58:38.477Z,62.60
2022-08-29T07:01:05.046Z,62.50
2022-08-29T07:03:31.568Z,62.40
2022-08-29T07:05:58.029Z,63.00
2022-08-29T07:08:24.500Z,62.30
2022-08-29T07:10:50.956Z,62.30
2022-08-29T07:13:17.436Z,62.30
2022-08-29T07:15:43.924Z,62.20
2022-08-29T07:18:10.527Z,62.30
2022-08-29T07:20:37.081Z,62.20
2022-08-29T07:23:03.557Z,62.30
2022-08-29T07:25:30.013Z,62.10
2022-08-29T07:27:56.492Z,62.00
2022-08-29T07:30:22.986Z,62.10
2022-08-29T07:32:49.499Z,62.10
2022-08-29T07:35:19.795Z,62.20
2022-08-29T07:37:55.669Z,62.20
2022-08-29T07:40:22.243Z,62.10
2022-08-29T07:42:48.822Z,62.00
2022-08-29T07:45:15.281Z,61.80
2022-08-29T07:47:41.770Z,61.80
2022-08-29T07:50:08.234Z,61.80
2022-08-29T07:52:34.710Z,61.80
2022-08-29T07:55:01.180Z,61.90
2022-08-29T07:57:27.657Z,61.90
2022-08-29T07:59:54.119Z,61.70
2022-08-29T08:02:20.623Z,61.70
2022-08-29T08:04:47.125Z,61.70
2022-08-29T08:07:18.923Z,61.50
2022-08-29T08:09:45.843Z,61.50
2022-08-29T08:12:12.307Z,61.60
2022-08-29T08:14:38.777Z,61.50
2022-08-29T08:17:05.315Z,61.40
2022-08-29T08:19:31.839Z,61.40
2022-08-29T08:21:58.312Z,61.30
2022-08-29T08:24:24.789Z,61.00
2022-08-29T08:26:51.248Z,60.60
2022-08-29T08:29:17.719Z,60.60
2022-08-29T08:31:44.179Z,61.20
2022-08-29T08:34:10.650Z,60.50
2022-08-29T08:36:41.006Z,60.10
2022-08-29T08:39:07.950Z,59.90
2022-08-29T08:41:34.405Z,59.80
2022-08-29T08:44:00.893Z,59.80
2022-08-29T08:46:27.424Z,59.90
2022-08-29T08:48:53.967Z,60.60
2022-08-29T08:51:20.425Z,60.00
2022-08-29T08:53:46.887Z,60.00
2022-08-29T08:56:13.353Z,60.00
2022-08-29T08:58:39.824Z,60.00
2022-08-29T09:01:06.317Z,59.80
2022-08-29T09:03:32.832Z,59.60
2022-08-29T09:05:59.293Z,59.50
2022-08-29T09:08:25.764Z,59.40
2022-08-29T09:10:58.061Z,59.30
2022-08-29T09:13:25.299Z,59.10
2022-08-29T09:15:51.778Z,59.30
2022-08-29T09:18:23.392Z,59.30
2022-08-29T09:20:50.534Z,59.40
2022-08-29T09:23:17.048Z,59.50
2022-08-29T09:25:43.582Z,59.30
2022-08-29T09:28:10.053Z,58.90
2022-08-29T09:30:36.525Z,58.50
2022-08-29T09:33:02.993Z,58.00
2022-08-29T09:35:29.495Z,57.60
2022-08-29T09:37:55.965Z,57.60
2022-08-29T09:40:22.534Z,57.40
2022-08-29T09:42:49.092Z,57.30
2022-08-29T09:45:15.588Z,57.40
2022-08-29T09:47:42.068Z,57.40
2022-08-29T09:50:08.566Z,57.30
2022-08-29T09:52:35.057Z,57.00
2022-08-29T09:55:01.513Z,57.10
2022-08-29T09:57:27.993Z,57.00
2022-08-29T09:59:54.468Z,57.00
2022-08-29T10:02:21.492Z,56.90
2022-08-29T10:04:47.998Z,56.80
2022-08-29T10:07:14.469Z,56.80
2022-08-29T10:09:40.933Z,56.80
2022-08-29T10:12:07.411Z,56.70
2022-08-29T10:14:33.870Z,57.40
2022-08-29T10:17:00.372Z,56.70
2022-08-29T10:19:26.876Z,56.70
2022-08-29T10:21:59.764Z,56.70
2022-08-29T10:24:26.247Z,56.70
2022-08-29T10:26:52.709Z,56.70
2022-08-29T10:29:19.188Z,56.70
2022-08-29T10:31:45.702Z,56.60
2022-08-29T10:34:12.205Z,56.70
2022-08-29T10:36:38.664Z,56.50
2022-08-29T10:39:05.130Z,56.40
2022-08-29T10:41:31.603Z,56.30
2022-08-29T10:43:58.066Z,56.30
2022-08-29T10:46:24.543Z,56.30
2022-08-29T10:48:51.013Z,56.30
2022-08-29T10:51:17.554Z,56.20
2022-08-29T10:53:44.017Z,55.90
2022-08-29T10:56:10.493Z,55.70
2022-08-29T10:58:36.949Z,55.70
2022-08-29T11:01:08.889Z,55.50
2022-08-29T11:03:35.708Z,55.50
2022-08-29T11:06:02.221Z,55.30
2022-08-29T11:08:28.690Z,55.10
2022-08-29T11:10:55.156Z,54.90
2022-08-29T11:13:21.613Z,54.70
2022-08-29T11:15:48.376Z,54.50
2022-08-29T11:18:15.519Z,54.30
2022-08-29T11:20:48.718Z,54.20
2022-08-29T11:23:15.180Z,53.70
2022-08-29T11:25:41.646Z,53.40
2022-08-29T11:28:08.202Z,53.30
2022-08-29T11:30:38.868Z,53.20
2022-08-29T11:33:06.861Z,53.10
2022-08-29T11:35:33.324Z,52.60
2022-08-29T11:37:59.795Z,52.30
2022-08-29T11:43:12.819Z,52.40
2022-08-29T11:45:39.373Z,52.40
2022-08-29T11:48:05.840Z,52.30
2022-08-29T11:50:32.311Z,51.80
2022-08-29T11:52:59.194Z,51.40
2022-08-29T11:55:25.683Z,50.80
2022-08-29T11:57:52.156Z,50.40
2022-08-29T12:00:18.684Z,50.10
2022-08-29T12:02:48.846Z,49.70
2022-08-29T12:05:15.549Z,49.20
2022-08-29T12:07:42.016Z,48.80
2022-08-29T12:10:08.489Z,47.90
2022-08-29T12:12:34.951Z,47.40
2022-08-29T12:15:01.415Z,47.00
2022-08-29T12:17:44.861Z,47.00
2022-08-29T12:20:14.355Z,47.00
2022-08-29T12:25:12.216Z,46.50
2022-08-29T12:27:38.694Z,46.60
2022-08-29T12:30:05.157Z,45.90
2022-08-29T12:32:32.059Z,45.70
2022-08-29T12:34:59.165Z,45.00
2022-08-29T12:37:25.635Z,44.80
2022-08-29T12:39:52.097Z,44.10
2022-08-29T12:42:18.556Z,44.30
2022-08-29T12:44:45.110Z,44.90
2022-08-29T12:47:11.649Z,45.20
2022-08-29T12:49:38.155Z,45.30
2022-08-29T12:52:04.624Z,45.40
2022-08-29T12:54:31.104Z,45.30
2022-08-29T12:56:58.426Z,45.20
2022-08-29T12:59:24.905Z,45.40
2022-08-29T13:01:56.135Z,45.20
2022-08-29T13:04:22.792Z,44.90
2022-08-29T13:06:51.157Z,44.30
2022-08-29T13:09:18.312Z,44.10
2022-08-29T13:11:44.772Z,44.10
2022-08-29T13:14:11.257Z,43.90
2022-08-29T13:16:37.724Z,43.60
2022-08-29T13:19:11.915Z,43.50
2022-08-29T13:21:38.534Z,43.10
2022-08-29T13:24:05.009Z,42.60
2022-08-29T13:26:31.479Z,42.30
2022-08-29T13:28:57.946Z,42.40
2022-08-29T13:31:24.476Z,42.80
2022-08-29T13:33:51.102Z,42.70
2022-08-29T13:36:17.576Z,42.20
2022-08-29T13:38:44.041Z,41.80
2022-08-29T13:41:10.509Z,41.90
2022-08-29T13:43:36.971Z,41.60
2022-08-29T13:46:03.479Z,41.70
2022-08-29T13:48:29.982Z,41.90
2022-08-29T13:50:56.439Z,41.50
2022-08-29T13:53:22.912Z,41.00
2022-08-29T13:55:49.378Z,40.90
2022-08-29T13:58:15.985Z,40.70
2022-08-29T14:00:42.589Z,40.50
2022-08-29T14:03:09.178Z,40.70
2022-08-29T14:05:35.839Z,40.60
2022-08-29T14:08:02.307Z,40.30
2022-08-29T14:10:28.769Z,39.90
2022-08-29T14:12:55.249Z,39.90
2022-08-29T14:15:21.717Z,39.90
2022-08-29T14:17:48.195Z,40.00
2022-08-29T14:20:14.661Z,40.40
2022-08-29T14:22:41.136Z,40.70
2022-08-29T14:25:07.595Z,40.80
2022-08-29T14:27:34.060Z,40.60
2022-08-29T14:30:00.516Z,39.80
2022-08-29T14:32:27.093Z,39.70
2022-08-29T14:34:53.573Z,40.20
2022-08-29T14:37:20.069Z,39.40
2022-08-29T14:39:49.707Z,39.10
2022-08-29T14:42:16.629Z,38.90
2022-08-29T14:44:43.093Z,38.20
2022-08-29T14:47:09.559Z,38.30
2022-08-29T14:49:36.035Z,38.00
2022-08-29T14:52:02.537Z,38.20
2022-08-29T14:54:29.017Z,38.50
2022-08-29T14:56:55.480Z,38.40
2022-08-29T14:59:21.957Z,38.60
2022-08-29T15:01:53.976Z,38.60
2022-08-29T15:04:21.809Z,38.70
2022-08-29T15:07:01.358Z,38.90
2022-08-29T15:09:28.228Z,39.10
2022-08-29T15:11:54.685Z,38.70
2022-08-29T15:14:21.161Z,38.80
2022-08-29T15:16:47.624Z,38.90
2022-08-29T15:19:45.070Z,38.90
2022-08-29T15:22:00.532Z,38.50
2022-08-29T15:24:27.370Z,38.20
2022-08-29T15:26:56.314Z,38.20
2022-08-29T15:29:22.781Z,38.60
2022-08-29T15:31:49.241Z,38.90
2022-08-29T15:34:15.712Z,39.10
2022-08-29T15:36:42.166Z,39.80
2022-08-29T15:39:08.633Z,39.30
2022-08-29T15:41:35.089Z,39.20
2022-08-29T15:44:01.560Z,39.30
2022-08-29T15:46:28.085Z,39.40
2022-08-29T15:48:54.605Z,39.40
2022-08-29T15:51:21.060Z,39.40
2022-08-29T15:53:47.548Z,39.30
2022-08-29T15:56:14.012Z,39.20
2022-08-29T15:58:40.495Z,38.90
2022-08-29T16:01:07.014Z,38.70
2022-08-29T16:03:33.545Z,39.00
2022-08-29T16:06:00.006Z,39.00
2022-08-29T16:08:29.547Z,39.10
2022-08-29T16:10:56.376Z,38.90
2022-08-29T16:13:22.844Z,38.70
2022-08-29T16:15:49.378Z,38.70
2022-08-29T16:18:16.080Z,38.60
2022-08-29T16:20:42.669Z,38.60
2022-08-29T16:23:09.123Z,38.40
2022-08-29T16:25:35.589Z,38.10
2022-08-29T16:28:02.047Z,38.10
2022-08-29T16:30:30.998Z,38.30
2022-08-29T16:32:57.527Z,38.40
2022-08-29T16:35:24.004Z,38.50
2022-08-29T16:38:02.838Z,38.80
2022-08-29T16:40:29.868Z,39.30
2022-08-29T16:42:56.357Z,40.00
2022-08-29T16:45:22.839Z,40.60
2022-08-29T16:47:50.547Z,41.10
2022-08-29T16:50:20.639Z,41.20
2022-08-29T16:52:47.101Z,41.60
2022-08-29T16:55:13.584Z,41.80
2022-08-29T16:57:40.043Z,42.10
2022-08-29T17:00:06.520Z,42.30
2022-08-29T17:02:33.033Z,42.60
2022-08-29T17:04:59.529Z,42.70
2022-08-29T17:07:26.008Z,42.90
2022-08-29T17:09:52.476Z,43.10
2022-08-29T17:12:18.941Z,43.40
2022-08-29T17:14:45.676Z,43.70
2022-08-29T17:17:15.586Z,43.90
2022-08-29T17:19:42.131Z,44.30
2022-08-29T17:22:09.670Z,44.50
2022-08-29T17:24:36.133Z,44.60
2022-08-29T17:27:02.606Z,44.70
2022-08-29T17:29:29.068Z,44.90
2022-08-29T17:31:55.552Z,45.10
2022-08-29T17:34:22.018Z,45.30
2022-08-29T17:36:48.488Z,45.50
2022-08-29T17:39:14.964Z,45.60
2022-08-29T17:41:42.945Z,45.80
2022-08-29T17:44:11.448Z,46.00
2022-08-29T17:46:37.916Z,46.10
2022-08-29T17:49:07.623Z,46.10
2022-08-29T17:51:34.594Z,46.30
2022-08-29T17:54:01.063Z,46.40
2022-08-29T17:56:27.539Z,46.40
2022-08-29T17:58:54.008Z,46.40
2022-08-29T18:01:20.577Z,46.40
2022-08-29T18:03:47.081Z,46.50
2022-08-29T18:06:14.645Z,46.50
2022-08-29T18:08:41.394Z,46.60
2022-08-29T18:11:07.865Z,46.80
2022-08-29T18:13:34.323Z,47.00
2022-08-29T18:16:00.801Z,47.10
2022-08-29T18:18:28.821Z,47.20
2022-08-29T18:20:55.298Z,47.40
2022-08-29T18:23:21.754Z,47.40
2022-08-29T18:25:48.212Z,47.70
2022-08-29T18:28:14.817Z,47.90
2022-08-29T18:30:41.405Z,47.90
2022-08-29T18:33:08.024Z,48.00
2022-08-29T18:35:34.485Z,48.10
2022-08-29T18:38:00.964Z,48.40
2022-08-29T18:40:27.514Z,48.50
2022-08-29T18:42:54.018Z,48.60
2022-08-29T18:45:20.481Z,48.70
2022-08-29T18:47:46.952Z,48.80
2022-08-29T18:50:13.415Z,49.10
2022-08-29T18:52:39.887Z,49.20
2022-08-29T18:55:06.347Z,49.30
2022-08-29T18:57:33.168Z,49.40
2022-08-29T18:59:59.635Z,49.90
2022-08-29T19:02:26.195Z,50.10
2022-08-29T19:04:52.717Z,50.20
2022-08-29T19:07:24.093Z,50.20
2022-08-29T19:09:50.969Z,50.40
2022-08-29T19:12:17.456Z,50.60
2022-08-29T19:14:46.114Z,50.80
2022-08-29T19:17:12.800Z,51.10
2022-08-29T19:19:39.260Z,51.00
2022-08-29T19:22:05.905Z,51.30
2022-08-29T19:24:32.379Z,51.50
2022-08-29T19:26:58.856Z,51.60
2022-08-29T19:29:25.315Z,51.80
2022-08-29T19:31:51.847Z,51.80
2022-08-29T19:34:18.348Z,52.10
2022-08-29T19:36:47.091Z,52.30
2022-08-29T19:39:13.657Z,52.20
2022-08-29T19:41:40.141Z,52.20
2022-08-29T19:44:06.613Z,52.40
2022-08-29T19:46:33.074Z,52.40
2022-08-29T19:48:59.578Z,52.40
2022-08-29T19:51:26.074Z,52.50
2022-08-29T19:53:52.541Z,52.70
2022-08-29T19:56:19.895Z,52.90
2022-08-29T19:58:46.410Z,53.10
2022-08-29T20:01:16.055Z,53.30
2022-08-29T20:03:42.572Z,53.50
2022-08-29T20:06:09.025Z,53.60
2022-08-29T20:08:35.492Z,53.80
2022-08-29T20:11:02.757Z,54.00
2022-08-29T20:13:35.220Z,54.10
2022-08-29T20:16:01.978Z,54.20
2022-08-29T20:18:28.491Z,54.40
2022-08-29T20:20:54.949Z,54.50
2022-08-29T20:23:21.420Z,54.60
2022-08-29T20:25:47.886Z,54.70
2022-08-29T20:28:15.787Z,55.00
2022-08-29T20:30:42.599Z,55.40
2022-08-29T20:33:09.099Z,55.60
2022-08-29T20:35:38.384Z,55.60
2022-08-29T20:38:04.864Z,55.60
2022-08-29T20:40:31.347Z,55.70
2022-08-29T20:42:57.832Z,55.80
2022-08-29T20:45:24.295Z,55.90
2022-08-29T20:47:50.769Z,56.00
2022-08-29T20:50:17.251Z,56.00
2022-08-29T20:52:43.762Z,56.20
2022-08-29T20:55:10.242Z,56.40
2022-08-29T20:57:36.708Z,56.50
2022-08-29T21:00:03.186Z,56.70
2022-08-29T21:02:29.741Z,56.80
2022-08-29T21:04:56.270Z,56.80
2022-08-29T21:07:22.737Z,56.90
2022-08-29T21:09:49.208Z,57.00
2022-08-29T21:12:15.673Z,57.10
2022-08-29T21:14:42.150Z,57.00
2022-08-29T21:17:08.617Z,57.10
2022-08-29T21:19:35.088Z,57.10
2022-08-29T21:22:01.556Z,57.20
2022-08-29T21:24:28.291Z,57.20
2022-08-29T21:26:54.749Z,57.30
2022-08-29T21:29:21.223Z,57.50
2022-08-29T21:31:47.715Z,57.40
2022-08-29T21:34:14.258Z,57.50
2022-08-29T21:36:40.730Z,57.70
2022-08-29T21:39:07.188Z,58.10
2022-08-29T21:41:33.671Z,58.10
2022-08-29T21:44:00.133Z,58.20
2022-08-29T21:46:26.643Z,58.30
2022-08-29T21:48:56.402Z,58.50
2022-08-29T21:51:23.297Z,58.50
2022-08-29T21:53:49.761Z,58.60
2022-08-29T21:56:16.240Z,58.70
2022-08-29T21:58:42.697Z,58.80
2022-08-29T22:01:09.170Z,58.90
2022-08-29T22:03:35.631Z,59.10
2022-08-29T22:06:02.107Z,59.00
2022-08-29T22:08:29.469Z,59.20
2022-08-29T22:10:55.939Z,59.10
2022-08-29T22:13:22.386Z,59.20
2022-08-29T22:15:48.891Z,59.30
2022-08-29T22:18:15.383Z,59.30
2022-08-29T22:20:41.849Z,59.50
2022-08-29T22:23:08.353Z,59.50
2022-08-29T22:25:34.862Z,59.60
2022-08-29T22:28:01.324Z,59.50
2022-08-29T22:30:32.168Z,59.60
2022-08-29T22:32:58.948Z,59.60
2022-08-29T22:35:25.616Z,59.70
2022-08-29T22:37:54.376Z,59.80
2022-08-29T22:40:21.087Z,59.90
2022-08-29T22:42:47.619Z,59.90
2022-08-29T22:45:14.083Z,60.00
2022-08-29T22:47:40.550Z,60.10
2022-08-29T22:50:07.024Z,60.10
2022-08-29T22:52:33.488Z,60.20
2022-08-29T22:54:59.951Z,60.50
2022-08-29T22:57:26.420Z,60.60
2022-08-29T22:59:52.883Z,60.40
2022-08-29T23:02:19.407Z,60.40
2022-08-29T23:04:45.958Z,60.40
2022-08-29T23:07:12.433Z,60.50
2022-08-29T23:09:38.889Z,60.50
2022-08-29T23:12:05.358Z,60.60
2022-08-29T23:14:31.836Z,60.50
2022-08-29T23:16:58.312Z,60.50
2022-08-29T23:19:24.768Z,60.50
2022-08-29T23:21:51.281Z,60.60
2022-08-29T23:24:17.740Z,60.80
2022-08-29T23:26:44.210Z,61.00
2022-08-29T23:29:10.667Z,61.20
2022-08-29T23:31:37.167Z,61.20
2022-08-29T23:34:03.640Z,61.50
2022-08-29T23:36:30.112Z,61.60
2022-08-29T23:38:56.571Z,61.80
2022-08-29T23:41:23.042Z,62.10
2022-08-29T23:43:49.512Z,62.10
2022-08-29T23:46:16.027Z,62.10
2022-08-29T23:48:42.529Z,62.10
2022-08-29T23:51:09.221Z,62.20
2022-08-29T23:53:35.726Z,62.10
2022-08-29T23:56:02.188Z,62.10
2022-08-29T23:58:28.660Z,62.20
